Time;durP1;ratioP1;P1;durP2;ratioP2;P2;SDS_P1;SDS_P2;PMS_P1;PMS_P2;Temp;Humidity;BMP_temperature;BMP_pressure;BME280_temperature;BME280_humidity;BME280_pressure;Samples;Min_cycle;Max_cycle;Signal;HPM_P1;HPM_P2
2022/07/07 00:01:29;;;;;;;9.18;4.45;;;19.50;99.50;;;;;;4935100;29;19911;-75
2022/07/07 00:03:54;;;;;;;9.50;4.93;;;18.80;99.50;;;;;;4905657;29;20075;-74
2022/07/07 00:06:20;;;;;;;7.15;5.13;;;19.50;99.80;;;;;;4935321;29;20492;-75
2022/07/07 00:08:47;;;;;;;8.45;5.00;;;20.00;99.90;;;;;;4935267;29;20024;-75
2022/07/07 00:11:14;;;;;;;8.48;5.20;;;18.90;99.90;;;;;;4935163;29;20055;-75
2022/07/07 00:13:39;;;;;;;9.07;4.68;;;19.10;99.90;;;;;;4934880;29;20057;-74
2022/07/07 00:16:05;;;;;;;12.70;4.65;;;19.20;99.90;;;;;;4935069;29;20118;-75
2022/07/07 00:18:30;;;;;;;8.90;5.20;;;19.20;99.90;;;;;;4935192;29;20028;-75
2022/07/07 00:20:56;;;;;;;11.90;5.68;;;18.50;99.90;;;;;;4934849;29;20051;-74
2022/07/07 00:23:21;;;;;;;14.57;5.60;;;19.40;99.90;;;;;;4909924;29;20024;-76
2022/07/07 00:25:47;;;;;;;10.82;5.28;;;19.10;99.90;;;;;;4899505;29;20369;-77
2022/07/07 00:28:13;;;;;;;7.53;4.00;;;18.70;99.90;;;;;;4931035;29;20484;-77
2022/07/07 00:30:38;;;;;;;11.65;4.45;;;19.00;99.90;;;;;;4936332;29;20031;-75
2022/07/07 00:33:04;;;;;;;8.35;4.10;;;18.60;99.90;;;;;;4938833;29;20063;-75
2022/07/07 00:35:30;;;;;;;8.68;4.15;;;18.50;99.90;;;;;;4938930;29;20023;-75
2022/07/07 00:37:55;;;;;;;11.48;4.38;;;18.50;99.90;;;;;;4938700;29;20031;-75
2022/07/07 00:40:22;;;;;;;10.80;4.50;;;18.60;99.90;;;;;;4924200;29;20128;-75
2022/07/07 00:42:47;;;;;;;6.50;3.60;;;18.80;99.90;;;;;;4919694;29;20464;-74
2022/07/07 00:45:13;;;;;;;5.75;3.22;;;18.60;99.90;;;;;;4902787;29;20021;-75
2022/07/07 00:47:40;;;;;;;12.27;4.68;;;18.70;99.90;;;;;;4902941;29;20485;-75
2022/07/07 00:50:06;;;;;;;10.20;4.22;;;19.10;99.90;;;;;;4902828;29;20032;-75
2022/07/07 00:52:31;;;;;;;8.60;3.83;;;18.50;99.90;;;;;;4902695;29;20035;-75
2022/07/07 00:54:59;;;;;;;9.38;4.32;;;19.20;99.90;;;;;;4911207;29;20421;-73
2022/07/07 00:57:24;;;;;;;6.70;4.50;;;18.50;99.90;;;;;;4938310;29;20083;-71
2022/07/07 00:59:50;;;;;;;12.13;4.50;;;18.50;99.90;;;;;;4938464;29;20421;-70
2022/07/07 01:02:16;;;;;;;8.82;3.85;;;18.40;99.90;;;;;;4921283;29;20182;-71
2022/07/07 01:04:41;;;;;;;11.73;4.57;;;18.40;99.90;;;;;;4921031;29;20454;-70
2022/07/07 01:07:07;;;;;;;7.22;4.05;;;18.40;99.90;;;;;;4921057;29;20031;-70
2022/07/07 01:09:33;;;;;;;6.97;3.75;;;18.40;99.90;;;;;;4920819;29;20396;-69
2022/07/07 01:11:58;;;;;;;9.80;4.22;;;18.40;99.90;;;;;;4921061;29;20023;-70
2022/07/07 01:14:24;;;;;;;5.55;3.70;;;18.40;99.90;;;;;;4923264;29;20538;-70
2022/07/07 01:16:50;;;;;;;9.65;4.28;;;18.50;99.90;;;;;;4936650;29;20103;-70
2022/07/07 01:19:16;;;;;;;11.73;4.28;;;18.40;99.90;;;;;;4938092;29;20034;-71
2022/07/07 01:21:48;;;;;;;8.55;3.63;;;17.80;99.90;;;;;;4937937;29;20401;-70
2022/07/07 01:24:14;;;;;;;9.55;4.50;;;18.30;99.90;;;;;;4936458;29;20047;-70
2022/07/07 01:26:39;;;;;;;7.95;4.05;;;18.30;99.90;;;;;;4936441;29;20476;-70
2022/07/07 01:29:06;;;;;;;12.05;4.38;;;18.40;99.90;;;;;;4936388;29;20053;-71
2022/07/07 01:31:31;;;;;;;6.57;4.07;;;18.40;99.90;;;;;;4937816;29;20043;-70
2022/07/07 01:33:57;;;;;;;9.82;4.30;;;18.30;99.90;;;;;;4937287;29;20046;-71
2022/07/07 01:36:22;;;;;;;11.98;3.70;;;18.20;99.90;;;;;;4924374;29;20024;-72
2022/07/07 01:38:48;;;;;;;9.73;4.65;;;18.20;99.90;;;;;;4935806;29;20500;-70
2022/07/07 01:41:13;;;;;;;8.10;4.72;;;18.20;99.90;;;;;;4936061;29;20040;-71
2022/07/07 01:43:39;;;;;;;7.93;4.43;;;18.30;99.90;;;;;;4936528;29;20035;-70
2022/07/07 01:49:34;;;;;;;10.57;4.38;;;18.30;99.90;;;;;;4916726;29;20039;-70
2022/07/07 01:52:00;;;;;;;8.00;4.35;;;18.20;99.90;;;;;;4931513;29;20039;-70
2022/07/07 01:54:26;;;;;;;9.68;4.30;;;18.20;99.90;;;;;;4936149;29;20032;-69
2022/07/07 01:56:52;;;;;;;5.32;3.47;;;18.20;99.90;;;;;;4937011;29;20108;-70
2022/07/07 01:59:17;;;;;;;7.32;4.05;;;18.20;99.90;;;;;;4935884;29;20110;-70
2022/07/07 02:01:43;;;;;;;5.68;3.70;;;18.20;99.90;;;;;;4936481;29;20481;-70
2022/07/07 02:04:09;;;;;;;7.30;3.80;;;18.20;99.90;;;;;;4937150;29;20028;-70
2022/07/07 02:06:34;;;;;;;8.23;4.00;;;18.20;99.90;;;;;;4936599;29;20095;-71
2022/07/07 02:09:00;;;;;;;6.00;3.88;;;18.20;99.90;;;;;;4935945;29;20024;-70
2022/07/07 02:11:28;;;;;;;8.23;4.03;;;18.10;99.90;;;;;;4937186;29;20547;-71
2022/07/07 02:13:54;;;;;;;9.82;3.42;;;18.20;99.90;;;;;;4936741;29;20035;-70
2022/07/07 02:16:21;;;;;;;5.75;3.45;;;18.10;99.90;;;;;;4919773;29;20032;-69
2022/07/07 02:18:46;;;;;;;7.22;3.42;;;18.20;99.90;;;;;;4919457;29;20070;-70
2022/07/07 02:21:13;;;;;;;3.90;3.22;;;18.20;99.90;;;;;;4936956;29;20059;-70
2022/07/07 02:23:39;;;;;;;7.03;3.83;;;18.10;99.90;;;;;;4936895;29;20055;-69
2022/07/07 02:26:05;;;;;;;9.75;3.42;;;18.10;99.90;;;;;;4936359;29;20473;-69
2022/07/07 02:28:31;;;;;;;8.57;3.90;;;18.20;99.90;;;;;;4936455;29;20039;-76
2022/07/07 02:30:57;;;;;;;8.95;3.50;;;18.10;99.90;;;;;;4936797;29;20476;-74
2022/07/07 02:33:22;;;;;;;10.50;4.07;;;18.10;99.90;;;;;;4936537;29;20035;-75
2022/07/07 02:35:48;;;;;;;5.43;3.50;;;18.10;99.90;;;;;;4936607;29;20036;-73
2022/07/07 02:38:14;;;;;;;9.45;4.20;;;18.10;99.90;;;;;;4935969;29;20059;-70
2022/07/07 02:40:39;;;;;;;10.20;3.95;;;18.20;99.90;;;;;;4936740;29;20033;-73
2022/07/07 02:43:05;;;;;;;4.60;3.35;;;18.10;99.90;;;;;;4919161;29;20027;-73
2022/07/07 02:45:30;;;;;;;11.05;3.67;;;18.20;99.90;;;;;;4919611;29;20105;-73
2022/07/07 02:47:56;;;;;;;6.57;3.50;;;18.10;99.90;;;;;;4936212;29;20040;-73
2022/07/07 02:50:22;;;;;;;7.90;3.75;;;18.10;99.90;;;;;;4936145;29;20038;-73
2022/07/07 02:52:48;;;;;;;7.55;3.50;;;18.10;99.90;;;;;;4936068;29;20119;-73
2022/07/07 02:55:13;;;;;;;6.53;3.60;;;18.10;99.90;;;;;;4936165;29;20036;-73
2022/07/07 02:57:39;;;;;;;6.00;4.00;;;18.10;99.90;;;;;;4936146;29;20024;-72
2022/07/07 03:00:05;;;;;;;9.85;3.53;;;18.20;99.90;;;;;;4935597;29;20056;-72
2022/07/07 03:02:31;;;;;;;8.05;2.88;;;18.20;99.90;;;;;;4936036;29;20039;-73
2022/07/07 03:04:56;;;;;;;7.97;3.50;;;18.20;99.90;;;;;;4936126;29;20036;-72
2022/07/07 03:07:22;;;;;;;6.57;3.30;;;18.20;99.90;;;;;;4935945;29;20483;-73
2022/07/07 03:09:47;;;;;;;7.65;3.47;;;18.20;99.90;;;;;;4935413;29;20036;-73
2022/07/07 03:12:13;;;;;;;7.28;3.47;;;18.10;99.90;;;;;;4935788;29;20476;-72
2022/07/07 03:14:38;;;;;;;6.00;3.25;;;18.20;99.90;;;;;;4935731;29;20047;-72
2022/07/07 03:17:04;;;;;;;6.32;3.38;;;18.20;99.90;;;;;;4935770;29;20167;-72
2022/07/07 03:19:29;;;;;;;16.50;5.18;;;18.20;99.90;;;;;;4935627;29;20380;-73
2022/07/07 03:21:55;;;;;;;7.85;3.75;;;18.20;99.90;;;;;;4935575;29;20479;-73
2022/07/07 03:24:20;;;;;;;2.15;1.33;;;18.20;99.90;;;;;;4935657;29;20114;-80
2022/07/07 03:26:46;;;;;;;6.25;3.83;;;18.40;99.90;;;;;;4935621;29;20171;-73
2022/07/07 03:29:11;;;;;;;7.10;3.45;;;18.30;99.90;;;;;;4934766;29;20064;-73
2022/07/07 03:31:37;;;;;;;6.78;3.20;;;18.10;99.90;;;;;;4918392;29;20038;-76
2022/07/07 03:34:02;;;;;;;8.98;3.60;;;18.20;99.90;;;;;;4918709;29;20107;-73
2022/07/07 03:36:28;;;;;;;7.95;4.18;;;18.20;99.90;;;;;;4935594;29;20067;-73
2022/07/07 03:38:54;;;;;;;4.32;3.78;;;19.00;99.90;;;;;;4935275;29;20568;-77
2022/07/07 03:41:19;;;;;;;7.93;3.47;;;18.20;99.90;;;;;;4935706;29;20428;-75
2022/07/07 03:43:45;;;;;;;8.63;3.42;;;18.20;99.90;;;;;;4935358;29;20060;-72
2022/07/07 03:46:10;;;;;;;7.90;3.67;;;18.10;99.90;;;;;;4935368;29;20071;-73
2022/07/07 03:48:36;;;;;;;7.40;3.85;;;18.10;99.90;;;;;;4935592;29;20035;-73
2022/07/07 03:51:01;;;;;;;6.80;4.03;;;18.20;99.90;;;;;;4934951;29;20035;-72
2022/07/07 03:53:27;;;;;;;8.80;3.80;;;18.20;99.90;;;;;;4935360;29;20459;-72
2022/07/07 03:55:52;;;;;;;9.00;3.67;;;18.20;99.90;;;;;;4935176;29;20127;-73
2022/07/07 03:58:18;;;;;;;8.13;3.50;;;18.20;99.90;;;;;;4935135;29;20042;-73
2022/07/07 04:00:43;;;;;;;6.32;3.70;;;18.10;99.90;;;;;;4935641;29;20115;-73
2022/07/07 04:03:09;;;;;;;6.63;3.53;;;18.20;99.90;;;;;;4935335;29;20106;-74
2022/07/07 04:05:35;;;;;;;8.05;4.70;;;18.10;99.90;;;;;;4936615;29;20020;-74
2022/07/07 04:08:01;;;;;;;7.78;4.47;;;18.10;99.90;;;;;;4939469;29;20036;-72
2022/07/07 04:10:26;;;;;;;7.78;4.32;;;18.10;99.90;;;;;;4939217;29;20381;-72
2022/07/07 04:12:53;;;;;;;7.72;4.38;;;18.10;99.90;;;;;;4939361;29;20027;-73
2022/07/07 04:15:19;;;;;;;12.98;4.35;;;18.10;99.90;;;;;;4938600;29;20059;-73
2022/07/07 04:17:45;;;;;;;10.38;4.72;;;18.20;99.90;;;;;;4930193;29;20039;-72
2022/07/07 04:20:11;;;;;;;9.68;4.38;;;18.20;99.90;;;;;;4938387;29;20171;-75
2022/07/07 04:22:37;;;;;;;21.95;5.68;;;18.20;99.90;;;;;;4938424;29;20039;-71
2022/07/07 04:25:02;;;;;;;16.38;5.93;;;18.20;99.90;;;;;;4936212;29;20075;-72
2022/07/07 04:27:28;;;;;;;12.57;5.55;;;18.20;99.90;;;;;;4913011;29;20043;-71
2022/07/07 04:29:54;;;;;;;16.23;5.10;;;18.40;99.90;;;;;;4921721;29;20481;-71
2022/07/07 04:32:19;;;;;;;12.93;4.80;;;18.20;99.90;;;;;;4922577;29;20036;-69
2022/07/07 04:34:44;;;;;;;11.43;5.20;;;18.20;99.90;;;;;;4922356;29;20512;-71
2022/07/07 04:37:10;;;;;;;15.55;5.15;;;18.20;99.90;;;;;;4919727;29;20119;-72
2022/07/07 04:39:36;;;;;;;10.35;4.65;;;18.20;99.90;;;;;;4919969;29;20039;-72
2022/07/07 04:42:01;;;;;;;8.75;4.53;;;18.20;99.90;;;;;;4934354;29;20055;-71
2022/07/07 04:44:27;;;;;;;11.68;4.55;;;18.20;99.90;;;;;;4935271;29;20027;-70
2022/07/07 04:46:52;;;;;;;17.08;5.60;;;18.70;99.90;;;;;;4920572;29;20044;-70
2022/07/07 04:49:50;;;;;;;9.02;4.63;;;18.20;99.90;;;;;;4930935;29;20087;-68
2022/07/07 04:52:15;;;;;;;11.43;4.40;;;18.20;99.90;;;;;;4930457;29;20052;-70
2022/07/07 04:54:41;;;;;;;20.83;5.70;;;18.10;99.90;;;;;;4938400;29;20465;-70
2022/07/07 04:57:06;;;;;;;10.30;5.72;;;17.90;99.90;;;;;;4938071;29;20035;-70
2022/07/07 04:59:32;;;;;;;11.55;5.32;;;17.60;99.90;;;;;;4921398;29;20028;-70
2022/07/07 05:01:57;;;;;;;20.48;6.82;;;17.50;99.90;;;;;;4937359;29;20167;-68
2022/07/07 05:04:23;;;;;;;10.30;5.93;;;17.50;99.90;;;;;;4938148;29;20032;-67
2022/07/07 05:06:48;;;;;;;11.43;6.15;;;17.40;99.90;;;;;;4931141;29;20441;-67
2022/07/07 05:09:14;;;;;;;10.85;6.25;;;17.40;99.90;;;;;;4928131;29;20043;-65
2022/07/07 05:11:39;;;;;;;11.00;5.53;;;17.30;99.90;;;;;;4938088;29;20035;-65
2022/07/07 05:14:05;;;;;;;13.02;6.57;;;17.30;99.90;;;;;;4937768;29;20063;-65
2022/07/07 05:16:30;;;;;;;10.60;6.57;;;17.20;99.90;;;;;;4924198;29;20389;-65
2022/07/07 05:18:56;;;;;;;44.58;12.27;;;17.00;99.90;;;;;;4919081;29;20039;-65
2022/07/07 05:21:21;;;;;;;22.80;9.38;;;16.90;99.90;;;;;;4935350;29;20028;-65
2022/07/07 05:23:48;;;;;;;37.25;12.07;;;16.90;99.90;;;;;;4935990;29;20534;-65
2022/07/07 05:26:14;;;;;;;20.88;10.15;;;16.70;99.90;;;;;;4937519;29;20106;-69
2022/07/07 05:28:41;;;;;;;18.60;8.20;;;16.60;99.90;;;;;;4938082;29;20027;-68
2022/07/07 05:31:08;;;;;;;25.13;9.65;;;16.50;99.90;;;;;;4937908;29;20449;-69
2022/07/07 05:33:34;;;;;;;14.90;9.20;;;16.40;99.90;;;;;;4937276;29;20040;-70
2022/07/07 05:35:59;;;;;;;25.65;10.43;;;16.40;99.90;;;;;;4920799;29;20043;-70
2022/07/07 05:38:25;;;;;;;22.50;10.65;;;16.40;99.90;;;;;;4937892;29;20031;-69
2022/07/07 05:40:50;;;;;;;25.75;11.20;;;16.60;99.90;;;;;;4937822;29;20043;-69
2022/07/07 06:29:00;;;;;;;10.82;7.50;;;16.60;99.90;;;;;;4214553;23;20051;-79
2022/07/07 06:31:26;;;;;;;10.45;6.25;;;17.20;99.90;;;;;;4936576;29;20035;-68
2022/07/07 06:33:51;;;;;;;12.68;7.55;;;16.50;99.90;;;;;;4936229;29;20067;-71
2022/07/07 06:36:17;;;;;;;18.92;8.77;;;16.70;99.90;;;;;;4936594;29;20039;-71
2022/07/07 06:38:43;;;;;;;18.08;6.70;;;16.80;99.90;;;;;;4936640;29;20106;-71
2022/07/07 06:41:09;;;;;;;19.65;6.43;;;16.80;99.90;;;;;;4932341;29;20166;-70
2022/07/07 06:43:35;;;;;;;9.30;5.30;;;17.10;99.90;;;;;;4928094;29;20111;-70
2022/07/07 06:46:00;;;;;;;14.88;5.18;;;17.00;99.90;;;;;;4917562;29;20115;-70
2022/07/07 06:48:26;;;;;;;11.38;4.70;;;17.10;99.90;;;;;;4930875;29;20031;-70
2022/07/07 06:50:51;;;;;;;9.63;4.47;;;17.30;99.90;;;;;;4923129;29;20076;-70
2022/07/07 06:53:17;;;;;;;7.95;4.82;;;17.30;99.90;;;;;;4900273;29;20039;-70
2022/07/07 06:55:42;;;;;;;6.60;4.25;;;17.20;99.90;;;;;;4917429;29;20039;-71
2022/07/07 06:58:08;;;;;;;7.72;4.25;;;17.20;99.90;;;;;;4900312;29;20087;-72
2022/07/07 07:00:33;;;;;;;15.00;7.22;;;17.10;99.90;;;;;;4918633;29;20039;-70
2022/07/07 07:02:59;;;;;;;18.38;4.53;;;17.30;99.90;;;;;;4934735;29;20078;-70
2022/07/07 07:05:25;;;;;;;11.60;6.70;;;17.50;99.90;;;;;;4922516;29;20499;-70
2022/07/07 07:08:31;;;;;;;9.15;3.60;;;17.70;99.90;;;;;;4920066;29;20036;-83
2022/07/07 07:11:48;;;;;;;;;;;;;;;;;;;;;
2022/07/07 07:14:21;;;;;;;13.63;4.75;;;17.90;99.90;;;;;;4923382;29;20489;-81
2022/07/07 07:28:03;;;;;;;5.68;3.25;;;17.30;99.90;;;;;;4932395;23;20059;-80
2022/07/07 07:30:32;;;;;;;15.68;4.50;;;17.00;99.90;;;;;;4925447;29;20024;-68
2022/07/07 07:32:58;;;;;;;7.43;3.15;;;17.40;99.90;;;;;;4934040;29;20120;-78
2022/07/07 07:35:41;;;;;;;11.88;3.45;;;17.50;99.90;;;;;;4935690;29;20102;-82
2022/07/07 07:38:07;;;;;;;25.70;14.80;;;18.50;99.90;;;;;;4935677;29;20036;-77
2022/07/07 07:40:32;;;;;;;8.27;3.33;;;19.20;99.90;;;;;;4935841;29;20030;-77
2022/07/07 07:42:58;;;;;;;8.32;2.00;;;20.10;99.90;;;;;;4935711;29;20106;-76
2022/07/07 07:45:24;;;;;;;8.38;2.13;;;20.70;99.90;;;;;;4935815;29;20015;-77
2022/07/07 07:47:49;;;;;;;8.98;2.83;;;19.80;99.90;;;;;;4934536;29;20499;-77
2022/07/07 07:50:17;;;;;;;10.23;2.53;;;19.80;99.90;;;;;;4950483;29;20040;-77
2022/07/07 07:52:43;;;;;;;9.27;2.80;;;19.40;99.90;;;;;;4935654;29;20028;-77
2022/07/07 07:55:09;;;;;;;10.95;2.30;;;18.30;99.90;;;;;;4935513;29;20094;-76
2022/07/07 07:57:35;;;;;;;14.18;3.13;;;18.50;99.90;;;;;;4935615;29;20087;-76
2022/07/07 08:00:01;;;;;;;8.00;2.17;;;18.90;99.90;;;;;;4950371;29;20384;-76
2022/07/07 08:02:27;;;;;;;8.20;1.98;;;19.80;99.90;;;;;;4950309;29;20086;-77
2022/07/07 08:04:52;;;;;;;12.20;2.58;;;19.60;99.90;;;;;;4935515;29;20019;-77
2022/07/07 08:07:18;;;;;;;7.57;2.13;;;17.80;99.90;;;;;;4935389;29;20103;-77
2022/07/07 08:09:44;;;;;;;8.93;2.50;;;19.20;99.90;;;;;;4935437;29;20057;-76
2022/07/07 08:12:10;;;;;;;6.20;2.15;;;18.70;99.90;;;;;;4934090;29;20075;-76
2022/07/07 08:14:35;;;;;;;4.70;1.83;;;18.40;99.90;;;;;;4935403;29;20509;-77
2022/07/07 08:17:01;;;;;;;9.95;2.75;;;18.40;99.90;;;;;;4935345;29;20028;-75
2022/07/07 08:19:27;;;;;;;8.50;1.90;;;18.00;99.90;;;;;;4935374;29;20079;-75
2022/07/07 08:21:52;;;;;;;8.80;1.90;;;18.70;99.90;;;;;;4934285;29;20392;-78
2022/07/07 08:24:18;;;;;;;7.70;1.98;;;18.50;99.90;;;;;;4935253;29;20023;-76
2022/07/07 08:26:43;;;;;;;12.27;2.22;;;18.20;99.90;;;;;;4918216;29;20058;-71
2022/07/07 08:29:09;;;;;;;14.57;2.92;;;17.90;99.90;;;;;;4934022;29;20035;-73
2022/07/07 08:31:34;;;;;;;10.00;2.25;;;17.60;99.90;;;;;;4935448;29;20030;-77
2022/07/07 08:34:09;;;;;;;12.43;2.75;;;16.80;99.90;;;;;;4935216;29;20046;-76
2022/07/07 08:36:34;;;;;;;12.02;2.70;;;18.40;99.90;;;;;;4919511;29;20032;-76
2022/07/07 08:39:00;;;;;;;25.42;3.38;;;18.30;99.90;;;;;;4935118;29;20110;-76
2022/07/07 08:41:26;;;;;;;8.27;1.67;;;19.10;99.90;;;;;;4934205;29;20028;-75
2022/07/07 08:43:51;;;;;;;16.40;2.38;;;19.10;99.90;;;;;;4935233;29;20122;-77
2022/07/07 08:46:17;;;;;;;10.32;2.33;;;19.40;99.90;;;;;;4935006;29;20119;-77
2022/07/07 08:59:00;;;;;;;10.90;1.80;;;20.00;99.90;;;;;;4879472;29;20049;-85
2022/07/07 12:12:29;;;;;;;5.43;1.67;;;20.00;99.90;;;;;;5855013;23;20059;-79
2022/07/07 12:14:55;;;;;;;3.17;1.50;;;19.80;99.90;;;;;;4904364;29;20040;-78
2022/07/07 12:17:36;;;;;;;3.45;1.58;;;20.40;99.90;;;;;;4902246;29;20028;-78
2022/07/07 12:20:03;;;;;;;4.95;1.30;;;20.90;99.90;;;;;;4918157;29;20046;-79
2022/07/07 12:22:35;;;;;;;3.83;1.38;;;19.60;99.90;;;;;;4917952;29;20523;-79
2022/07/07 12:25:05;;;;;;;4.88;1.35;;;19.80;99.90;;;;;;4918421;29;20506;-78
2022/07/07 12:27:51;;;;;;;5.97;1.02;;;19.50;99.90;;;;;;4937270;29;20023;-82
2022/07/07 12:30:16;;;;;;;9.63;2.00;;;20.10;99.90;;;;;;4920966;29;20056;-81
2022/07/07 12:32:44;;;;;;;5.65;1.40;;;19.80;99.90;;;;;;4905918;29;20063;-80
2022/07/07 12:35:24;;;;;;;6.63;1.40;;;21.80;99.90;;;;;;4921512;29;20027;-77
2022/07/07 12:37:49;;;;;;;11.30;2.22;;;21.20;99.90;;;;;;4921361;29;20523;-77
2022/07/07 12:40:15;;;;;;;1.70;0.70;;;21.50;99.90;;;;;;4905635;29;20055;-77
2022/07/07 12:42:45;;;;;;;5.30;1.27;;;21.40;99.40;;;;;;4938466;29;20055;-77
2022/07/07 12:45:18;;;;;;;1.95;0.93;;;21.10;99.80;;;;;;4921547;29;20024;-79
2022/07/07 12:47:47;;;;;;;3.92;1.10;;;20.60;99.90;;;;;;4921652;29;20038;-79
2022/07/07 12:50:12;;;;;;;8.32;1.23;;;20.30;99.90;;;;;;4938232;29;20035;-79
2022/07/07 12:52:38;;;;;;;4.47;0.88;;;20.10;99.90;;;;;;4938301;29;20023;-79
2022/07/07 12:55:11;;;;;;;5.70;1.00;;;19.80;99.90;;;;;;4938269;29;20024;-79
2022/07/07 12:57:37;;;;;;;2.40;0.80;;;19.60;99.90;;;;;;4938156;29;20488;-79
2022/07/07 13:00:04;;;;;;;8.18;1.33;;;19.50;99.90;;;;;;4921061;29;20185;-78
2022/07/07 13:02:29;;;;;;;3.97;0.93;;;19.30;99.90;;;;;;4937973;29;20392;-79
2022/07/07 13:04:55;;;;;;;7.20;1.60;;;19.60;99.90;;;;;;4938017;29;20031;-79
2022/07/07 13:07:22;;;;;;;4.35;1.33;;;19.60;99.90;;;;;;4937929;29;20031;-79
2022/07/07 13:09:48;;;;;;;6.45;2.10;;;19.60;99.90;;;;;;4921300;29;20306;-80
2022/07/07 13:12:14;;;;;;;5.82;1.10;;;19.60;99.90;;;;;;4920774;29;20126;-78
2022/07/07 13:14:40;;;;;;;11.40;1.23;;;19.80;99.90;;;;;;4921081;29;20092;-79
2022/07/07 13:17:05;;;;;;;3.42;1.02;;;20.10;99.90;;;;;;4937821;29;20493;-78
2022/07/07 13:19:31;;;;;;;3.67;0.88;;;20.50;99.90;;;;;;4920458;29;20118;-79
2022/07/07 13:21:56;;;;;;;7.05;1.40;;;20.90;99.90;;;;;;4937406;29;20024;-79
2022/07/07 13:24:22;;;;;;;3.03;1.08;;;20.50;99.90;;;;;;4920444;29;20035;-79
2022/07/07 13:26:47;;;;;;;5.55;1.35;;;20.60;99.90;;;;;;4920633;29;20539;-79
2022/07/07 13:29:17;;;;;;;5.13;1.45;;;20.70;99.90;;;;;;4920455;29;20030;-79
2022/07/07 13:31:43;;;;;;;7.18;1.35;;;20.90;99.90;;;;;;4905970;29;20047;-79
2022/07/07 13:34:08;;;;;;;3.88;1.27;;;20.70;99.90;;;;;;4904810;29;20447;-78
2022/07/07 13:36:34;;;;;;;4.32;1.25;;;20.80;99.90;;;;;;4937433;29;20078;-79
2022/07/07 13:38:59;;;;;;;4.07;1.40;;;20.70;99.90;;;;;;4937305;29;20087;-78
2022/07/07 13:41:25;;;;;;;2.63;0.80;;;21.30;99.90;;;;;;4937364;29;20023;-79
2022/07/07 13:43:50;;;;;;;5.03;1.20;;;20.70;99.90;;;;;;4920460;29;20023;-78
2022/07/07 13:46:16;;;;;;;10.18;1.90;;;20.80;99.90;;;;;;4920348;29;20075;-76
2022/07/07 13:48:41;;;;;;;4.63;1.48;;;21.00;99.90;;;;;;4937149;29;20369;-80
2022/07/07 13:51:07;;;;;;;8.70;3.85;;;21.40;99.90;;;;;;4937310;29;20039;-79
2022/07/07 13:53:32;;;;;;;10.02;1.60;;;21.30;99.90;;;;;;4937155;29;20031;-80
2022/07/07 13:55:58;;;;;;;3.95;1.20;;;21.30;99.90;;;;;;4937234;29;20059;-78
2022/07/07 13:58:23;;;;;;;3.10;1.40;;;22.40;99.90;;;;;;4936923;29;20469;-79
2022/07/07 14:00:49;;;;;;;5.60;1.25;;;21.70;98.80;;;;;;4937040;29;20116;-78
2022/07/07 14:03:15;;;;;;;5.38;1.23;;;21.90;99.10;;;;;;4937256;29;20138;-79
2022/07/07 14:05:40;;;;;;;7.07;1.58;;;21.70;98.70;;;;;;4936919;29;20082;-78
2022/07/07 14:08:06;;;;;;;5.65;1.90;;;21.20;99.70;;;;;;4936911;29;20436;-79
2022/07/07 14:10:31;;;;;;;3.90;1.30;;;21.10;99.90;;;;;;4936668;29;20106;-79
2022/07/07 14:12:57;;;;;;;6.85;1.67;;;21.60;99.90;;;;;;4919587;29;20080;-79
2022/07/07 14:15:23;;;;;;;5.80;1.70;;;21.20;99.90;;;;;;4919956;29;20031;-80
2022/07/07 14:17:49;;;;;;;3.88;1.30;;;20.60;99.90;;;;;;4936056;29;20086;-79
2022/07/07 14:20:15;;;;;;;8.75;1.52;;;20.60;99.90;;;;;;4918189;29;20031;-80
2022/07/07 14:22:40;;;;;;;10.38;2.40;;;20.70;99.90;;;;;;4936773;29;20361;-79
2022/07/07 14:25:06;;;;;;;9.75;1.63;;;20.90;99.90;;;;;;4936635;29;20030;-79
2022/07/07 14:27:32;;;;;;;6.47;1.95;;;21.10;99.90;;;;;;4919519;29;20085;-80
2022/07/07 14:30:00;;;;;;;9.90;2.10;;;21.10;99.70;;;;;;4919663;29;20523;-73
2022/07/07 14:32:27;;;;;;;8.27;1.73;;;21.00;99.90;;;;;;4936407;29;20024;-72
2022/07/07 14:34:53;;;;;;;9.07;2.30;;;21.10;99.90;;;;;;4936322;29;20071;-72
2022/07/07 14:37:18;;;;;;;11.25;3.47;;;21.50;99.90;;;;;;4919369;29;20028;-72
2022/07/07 14:39:44;;;;;;;7.03;2.55;;;21.70;99.90;;;;;;4919293;29;20547;-72
2022/07/07 14:42:09;;;;;;;5.53;2.65;;;21.30;99.70;;;;;;4919313;29;20020;-72
2022/07/07 14:44:35;;;;;;;5.70;2.97;;;21.10;99.90;;;;;;4919235;29;20087;-79
2022/07/07 14:47:01;;;;;;;11.75;2.40;;;20.80;99.90;;;;;;4903697;29;20031;-78
2022/07/07 14:49:26;;;;;;;2.80;1.40;;;20.30;99.90;;;;;;4918558;29;20114;-77
2022/07/07 15:02:03;;;;;;;6.47;1.80;;;21.70;97.20;;;;;;4833350;29;20125;-82
2022/07/07 15:04:43;;;;;;;6.10;2.25;;;21.70;97.70;;;;;;4898783;29;20099;-82
2022/07/07 15:31:26;;;;;;;8.82;2.40;;;21.70;97.60;;;;;;5225173;23;20043;-72
2022/07/07 15:33:51;;;;;;;4.68;1.77;;;22.30;96.30;;;;;;4939101;29;20031;-72
2022/07/07 15:36:17;;;;;;;8.68;2.15;;;22.40;94.40;;;;;;4935799;29;20496;-72
2022/07/07 15:38:45;;;;;;;9.82;2.25;;;22.20;94.60;;;;;;4947062;29;20496;-85
2022/07/07 15:41:20;;;;;;;8.82;1.80;;;22.00;94.50;;;;;;4930201;29;20035;-82
2022/07/07 15:43:56;;;;;;;21.88;3.58;;;21.60;95.00;;;;;;4936055;29;20031;-81
2022/07/07 15:46:25;;;;;;;13.93;2.47;;;21.60;95.50;;;;;;4928772;29;20081;-82
2022/07/07 15:49:25;;;;;;;11.73;2.50;;;21.90;92.10;;;;;;4918625;29;20035;-82
2022/07/07 15:55:15;;;;;;;9.10;2.15;;;21.40;93.70;;;;;;4919105;29;20039;-80
2022/07/07 16:00:33;;;;;;;13.55;2.42;;;21.60;90.80;;;;;;4899097;28;20090;-82
2022/07/07 16:06:28;;;;;;;6.53;2.05;;;22.30;89.80;;;;;;4930725;29;20058;-82
2022/07/07 16:08:54;;;;;;;10.52;2.70;;;23.00;86.80;;;;;;4939975;29;20023;-81
2022/07/07 16:11:19;;;;;;;11.15;1.70;;;22.30;86.20;;;;;;4920807;29;20114;-80
2022/07/07 16:13:45;;;;;;;14.30;2.67;;;21.80;81.30;;;;;;4941332;29;20051;-81
2022/07/07 16:16:13;;;;;;;11.60;2.30;;;21.00;87.90;;;;;;4927768;29;20458;-82
2022/07/07 16:19:08;;;;;;;10.93;2.08;;;20.90;90.20;;;;;;4933665;29;20187;-82
2022/07/07 16:21:34;;;;;;;16.15;2.65;;;20.90;90.00;;;;;;4949973;28;20039;-82
2022/07/07 16:24:01;;;;;;;23.88;5.35;;;21.00;91.10;;;;;;4972659;28;20543;-82
2022/07/07 16:26:51;;;;;;;17.25;3.63;;;20.40;91.80;;;;;;4956407;29;20539;-81
2022/07/07 16:30:35;;;;;;;10.95;2.40;;;20.30;92.40;;;;;;4957544;29;20045;-83
2022/07/07 16:33:27;;;;;;;14.63;3.08;;;20.00;94.00;;;;;;4956951;29;20049;-85
2022/07/07 16:35:55;;;;;;;16.85;3.50;;;19.90;94.50;;;;;;4957462;29;20415;-81
2022/07/07 16:38:22;;;;;;;10.63;2.75;;;20.00;93.80;;;;;;4957285;29;20031;-82
2022/07/07 16:41:26;;;;;;;10.65;2.33;;;20.90;93.60;;;;;;4957548;29;20058;-82
2022/07/07 16:43:53;;;;;;;8.65;1.80;;;19.90;93.60;;;;;;4936602;29;20053;-82
2022/07/07 16:46:20;;;;;;;8.40;2.38;;;20.50;94.20;;;;;;4972060;28;20452;-82
2022/07/07 16:48:45;;;;;;;14.63;2.95;;;19.90;93.50;;;;;;4952201;29;20054;-81
2022/07/07 16:51:12;;;;;;;10.43;2.80;;;21.00;94.00;;;;;;4957316;29;20035;-82
2022/07/07 16:54:02;;;;;;;8.50;1.95;;;20.00;93.10;;;;;;4957105;29;20043;-82
2022/07/07 16:56:35;;;;;;;10.55;2.35;;;20.20;93.50;;;;;;4956025;28;20050;-72
2022/07/07 16:59:00;;;;;;;13.23;1.90;;;19.90;93.80;;;;;;4956342;29;20039;-72
2022/07/07 17:01:26;;;;;;;11.10;2.20;;;19.70;94.50;;;;;;4932375;29;20024;-73
2022/07/07 17:03:52;;;;;;;23.88;3.58;;;19.80;94.10;;;;;;4947285;29;20033;-73
2022/07/07 17:06:19;;;;;;;57.20;12.98;;;20.00;93.90;;;;;;4933051;29;20435;-73
2022/07/07 17:08:45;;;;;;;10.45;2.33;;;19.80;94.10;;;;;;4929765;29;20037;-73
2022/07/07 17:11:11;;;;;;;8.45;1.98;;;19.90;94.10;;;;;;4947714;29;20031;-73
2022/07/07 17:13:36;;;;;;;10.98;2.72;;;20.80;94.20;;;;;;4952202;28;20035;-73
2022/07/07 17:16:02;;;;;;;18.60;2.60;;;19.70;94.10;;;;;;4949801;29;20506;-73
2022/07/07 17:18:27;;;;;;;15.65;2.78;;;19.60;94.10;;;;;;4947045;28;20020;-73
2022/07/07 17:20:53;;;;;;;14.75;2.58;;;19.70;95.10;;;;;;4939362;29;20027;-73
2022/07/07 17:23:19;;;;;;;8.00;2.22;;;19.70;94.20;;;;;;4956377;29;20611;-73
2022/07/07 17:25:44;;;;;;;8.27;1.75;;;19.40;94.60;;;;;;4956109;29;20023;-72
2022/07/07 17:28:10;;;;;;;8.60;2.67;;;19.40;94.50;;;;;;4956367;29;20097;-73
2022/07/07 17:30:35;;;;;;;15.27;2.58;;;19.10;94.90;;;;;;4956112;29;20648;-73
2022/07/07 17:33:01;;;;;;;10.65;2.05;;;19.20;94.80;;;;;;4956343;29;20038;-72
2022/07/07 17:35:26;;;;;;;8.98;2.05;;;19.30;94.70;;;;;;4956110;29;20035;-73
2022/07/07 17:37:52;;;;;;;10.77;1.95;;;19.30;94.50;;;;;;4956125;29;20086;-72
2022/07/07 17:40:18;;;;;;;10.40;2.10;;;19.40;94.00;;;;;;4956150;29;20023;-73
2022/07/07 17:42:43;;;;;;;10.35;2.22;;;19.30;94.30;;;;;;4956069;29;20035;-73
2022/07/07 17:45:09;;;;;;;11.95;2.60;;;19.10;94.80;;;;;;4955987;29;20030;-73
2022/07/07 17:47:35;;;;;;;12.00;2.40;;;18.90;94.40;;;;;;4955950;29;20039;-73
2022/07/07 17:50:00;;;;;;;12.63;2.45;;;18.90;94.80;;;;;;4956128;29;20034;-73